Time;durP1;ratioP1;P1;durP2;ratioP2;P2;SDS_P1;SDS_P2;PMS_P1;PMS_P2;Temp;Humidity;BMP_temperature;BMP_pressure;BME280_temperature;BME280_humidity;BME280_pressure;Samples;Min_cycle;Max_cycle;Signal;HPM_P1;HPM_P2
2023/08/06 08:37:13;;;;;;;10.73;8.73;;;30.20;99.90;;;;;;6252478;22;20289;-80
2023/08/06 08:40:42;;;;;;;11.40;8.63;;;30.80;99.90;;;;;;6222688;23;20528;-81
2023/08/06 08:43:43;;;;;;;9.18;7.85;;;30.50;99.90;;;;;;6223478;23;20208;-83
2023/08/06 08:46:39;;;;;;;12.70;8.50;;;30.70;99.90;;;;;;6096754;23;20245;-82
2023/08/06 08:49:57;;;;;;;;;;;;;;;;;;;;;
2023/08/06 08:58:35;;;;;;;10.75;7.63;;;31.10;99.90;;;;;;6250656;22;20210;-79
2023/08/06 09:01:22;;;;;;;11.10;7.82;;;30.80;99.90;;;;;;6200328;23;20162;-79
2023/08/06 09:03:53;;;;;;;13.63;7.80;;;30.80;99.90;;;;;;6223508;23;20190;-81
2023/08/06 09:14:36;;;;;;;11.05;7.63;;;30.50;99.90;;;;;;6282044;22;20196;-82
2023/08/06 09:17:23;;;;;;;13.80;8.18;;;30.70;99.90;;;;;;6257408;22;20190;-81
2023/08/06 09:20:15;;;;;;;12.43;7.57;;;30.70;99.90;;;;;;6256774;22;20196;-81
2023/08/06 09:22:48;;;;;;;11.23;7.93;;;31.10;99.90;;;;;;6254246;22;20457;-81
2023/08/06 09:26:01;;;;;;;11.52;7.43;;;31.30;99.90;;;;;;6269648;22;20174;-81
2023/08/06 09:28:49;;;;;;;9.25;7.15;;;31.40;99.90;;;;;;6230051;22;20198;-81
2023/08/06 09:32:06;;;;;;;;;;;;;;;;;;;;;
2023/08/06 09:35:27;;;;;;;10.20;7.72;;;30.90;99.90;;;;;;6282043;22;20237;-82
2023/08/06 09:38:09;;;;;;;15.98;7.22;;;30.90;99.90;;;;;;6166419;23;20246;-81
2023/08/06 09:40:43;;;;;;;12.55;7.60;;;30.90;99.90;;;;;;6163545;23;20182;-82
2023/08/06 09:43:25;;;;;;;13.75;7.00;;;31.20;99.90;;;;;;6132210;23;20192;-83
2023/08/06 09:45:57;;;;;;;9.70;7.35;;;31.50;99.90;;;;;;6134519;23;20180;-82
2023/08/06 09:59:33;;;;;;;8.85;7.15;;;31.90;99.90;;;;;;6218736;22;20206;-81
2023/08/06 10:19:34;;;;;;;9.93;6.00;;;33.30;99.90;;;;;;6279838;22;20484;-83
2023/08/06 10:22:18;;;;;;;8.15;6.45;;;33.10;99.90;;;;;;6276309;22;20182;-84
2023/08/06 10:25:04;;;;;;;8.13;6.10;;;33.60;99.90;;;;;;6249780;23;20185;-85
2023/08/06 10:27:39;;;;;;;10.25;6.20;;;33.70;99.90;;;;;;6223351;23;20231;-83
2023/08/06 10:30:32;;;;;;;8.13;5.97;;;34.10;99.90;;;;;;6250129;23;20150;-84
2023/08/06 10:33:04;;;;;;;7.68;5.90;;;34.60;99.90;;;;;;6223321;23;20186;-83
2023/08/06 10:35:50;;;;;;;7.93;6.13;;;34.00;99.90;;;;;;6200357;23;20253;-82
2023/08/06 10:38:25;;;;;;;6.72;6.05;;;33.20;99.90;;;;;;6224954;23;20282;-83
2023/08/06 10:40:52;;;;;;;8.55;5.55;;;33.00;99.90;;;;;;6225145;23;20170;-82
2023/08/06 10:43:39;;;;;;;9.25;6.00;;;32.70;99.90;;;;;;6225529;23;20182;-81
2023/08/06 10:46:11;;;;;;;9.40;5.88;;;32.70;99.90;;;;;;6252128;23;20150;-83
2023/08/06 10:48:45;;;;;;;9.10;5.80;;;32.30;99.90;;;;;;6225658;23;20248;-83
2023/08/06 10:51:14;;;;;;;9.80;5.93;;;32.20;99.90;;;;;;6224994;23;20188;-81
2023/08/06 10:53:45;;;;;;;9.65;5.90;;;32.00;99.90;;;;;;6200344;23;20520;-83
2023/08/06 10:56:14;;;;;;;7.80;5.95;;;32.00;99.90;;;;;;6225019;23;20273;-83
2023/08/06 10:58:45;;;;;;;9.73;6.10;;;32.00;99.90;;;;;;6222926;23;20221;-83
2023/08/06 11:01:12;;;;;;;8.13;6.07;;;31.80;99.90;;;;;;6222840;23;20189;-82
2023/08/06 11:03:39;;;;;;;7.50;5.75;;;31.60;99.90;;;;;;6223005;23;20232;-83
2023/08/06 11:06:09;;;;;;;10.10;6.10;;;31.40;99.90;;;;;;6249407;23;20167;-82
2023/08/06 11:08:38;;;;;;;7.82;5.53;;;31.40;99.90;;;;;;6249466;22;20273;-83
2023/08/06 11:11:13;;;;;;;7.82;6.25;;;31.60;99.90;;;;;;6222575;23;20170;-82
2023/08/06 11:13:41;;;;;;;6.90;5.80;;;32.00;99.90;;;;;;6222773;23;20194;-82
2023/08/06 11:16:09;;;;;;;7.63;5.78;;;32.10;99.90;;;;;;6222782;23;20202;-82
2023/08/06 11:18:36;;;;;;;7.97;5.72;;;32.20;99.90;;;;;;6249589;22;20533;-83
2023/08/06 11:21:03;;;;;;;6.10;5.40;;;31.90;99.90;;;;;;6223007;23;20171;-82
2023/08/06 11:23:31;;;;;;;9.30;5.93;;;31.70;99.90;;;;;;6222655;23;20587;-82
2023/08/06 11:25:58;;;;;;;9.32;6.10;;;31.40;99.90;;;;;;6222757;23;20530;-82
2023/08/06 11:28:25;;;;;;;9.43;6.07;;;31.20;99.90;;;;;;6222427;23;20240;-82
2023/08/06 11:30:55;;;;;;;8.50;6.25;;;31.80;99.90;;;;;;6222193;23;20177;-82
2023/08/06 11:33:26;;;;;;;6.78;5.78;;;32.10;99.90;;;;;;6222672;23;20187;-82
2023/08/06 11:35:55;;;;;;;9.80;5.88;;;32.30;99.90;;;;;;6222735;23;20177;-81
2023/08/06 11:38:26;;;;;;;8.38;5.88;;;32.40;99.90;;;;;;6222568;23;20228;-80
2023/08/06 11:40:53;;;;;;;10.20;5.70;;;32.90;99.90;;;;;;6197477;23;20159;-81
2023/08/06 11:43:22;;;;;;;7.22;5.80;;;33.60;99.90;;;;;;6222417;23;20186;-82
2023/08/06 11:45:54;;;;;;;8.50;5.78;;;33.90;99.90;;;;;;6248979;23;20197;-82
2023/08/06 11:48:21;;;;;;;6.70;5.97;;;34.30;99.90;;;;;;6222626;23;20592;-83
2023/08/06 11:50:48;;;;;;;8.18;5.70;;;34.80;99.90;;;;;;6222740;23;20197;-82
2023/08/06 11:53:16;;;;;;;8.60;5.72;;;34.80;99.90;;;;;;6249060;22;20288;-82
2023/08/06 11:55:44;;;;;;;6.55;5.40;;;35.10;99.90;;;;;;6222504;23;20171;-82
2023/08/06 11:58:14;;;;;;;5.90;5.20;;;35.50;99.90;;;;;;6222221;23;20445;-82
2023/08/06 12:00:42;;;;;;;8.57;5.18;;;35.30;99.90;;;;;;6222242;23;20163;-81
2023/08/06 12:03:10;;;;;;;10.60;5.38;;;35.70;99.90;;;;;;6222028;23;20569;-81
2023/08/06 12:05:38;;;;;;;6.88;5.10;;;36.20;99.10;;;;;;6101692;23;20228;-82
2023/08/06 12:08:08;;;;;;;8.13;5.38;;;35.90;98.10;;;;;;6014958;23;20199;-82
2023/08/06 12:10:35;;;;;;;7.63;5.57;;;35.20;98.00;;;;;;6040893;23;20558;-82
2023/08/06 12:13:03;;;;;;;7.82;5.28;;;34.30;99.10;;;;;;6041689;23;20246;-83
2023/08/06 12:15:30;;;;;;;6.07;5.35;;;34.00;99.90;;;;;;5984724;24;20172;-82
2023/08/06 12:17:59;;;;;;;6.53;5.82;;;33.70;99.90;;;;;;5984782;24;20268;-83
2023/08/06 12:20:28;;;;;;;9.73;6.30;;;33.30;99.90;;;;;;5984566;24;20165;-83
2023/08/06 12:22:55;;;;;;;9.00;6.07;;;32.60;99.90;;;;;;5983091;23;20245;-83
2023/08/06 12:25:24;;;;;;;8.60;6.50;;;32.40;99.90;;;;;;6002373;23;20554;-83
2023/08/06 12:27:51;;;;;;;8.10;7.00;;;31.90;99.90;;;;;;6102067;23;20196;-83
2023/08/06 12:30:18;;;;;;;6.90;6.20;;;31.60;99.90;;;;;;6101672;23;20264;-83
2023/08/06 12:32:45;;;;;;;11.07;6.68;;;31.20;99.90;;;;;;6113367;23;20192;-82
2023/08/06 12:35:13;;;;;;;11.05;6.57;;;30.90;99.90;;;;;;6191892;23;20541;-82
2023/08/06 12:37:42;;;;;;;8.35;7.00;;;30.50;99.90;;;;;;6192049;23;20552;-83
2023/08/06 12:40:10;;;;;;;10.45;7.03;;;30.30;99.90;;;;;;6167820;23;20175;-82
2023/08/06 12:42:59;;;;;;;9.30;6.85;;;30.00;99.90;;;;;;6219753;23;20193;-82
2023/08/06 12:45:26;;;;;;;7.63;6.70;;;29.80;99.90;;;;;;6221229;23;20237;-82
2023/08/06 12:47:53;;;;;;;10.23;6.88;;;29.70;99.90;;;;;;6195302;23;20191;-84
2023/08/06 12:50:20;;;;;;;7.70;6.85;;;29.60;99.90;;;;;;6169864;23;20166;-83
2023/08/06 12:52:47;;;;;;;8.80;6.53;;;29.40;99.90;;;;;;6195040;23;20460;-84
2023/08/06 12:55:14;;;;;;;12.77;6.85;;;29.30;99.90;;;;;;6194703;23;20170;-83
2023/08/06 14:43:47;;;;;;;7.55;3.97;;;32.00;99.90;;;;;;6227669;22;20635;-78
2023/08/06 15:50:15;;;;;;;3.63;1.67;;;26.90;99.90;;;;;;6230784;22;21380;-86
2023/08/06 16:04:33;;;;;;;1.65;1.35;;;27.50;99.90;;;;;;6230363;22;20210;-90
2023/08/06 16:07:38;;;;;;;1.50;1.40;;;27.10;99.90;;;;;;6216337;23;20242;-90
2023/08/06 16:40:46;;;;;;;;;;;;;;;;;;;;;
2023/08/06 16:46:24;;;;;;;2.10;1.20;;;26.10;99.90;;;;;;6245992;22;20644;-85
2023/08/06 16:48:52;;;;;;;2.42;1.27;;;25.90;99.90;;;;;;6248503;22;20187;-83
2023/08/06 16:51:19;;;;;;;1.30;1.13;;;25.90;99.90;;;;;;6222210;23;20162;-82
2023/08/06 16:53:46;;;;;;;1.33;1.23;;;25.90;99.90;;;;;;6222256;23;20233;-82
2023/08/06 16:56:13;;;;;;;2.13;1.20;;;25.70;99.90;;;;;;6248867;23;20190;-82
2023/08/06 17:01:49;;;;;;;;;;;;;;;;;;;;;
2023/08/06 17:04:30;;;;;;;1.20;1.10;;;25.40;99.90;;;;;;6161763;23;20178;-88
2023/08/06 17:07:09;;;;;;;3.35;1.10;;;25.00;99.90;;;;;;6190080;23;20160;-89
2023/08/06 17:36:37;;;;;;;2.08;1.90;;;23.30;99.90;;;;;;6248611;23;20194;-89
2023/08/06 17:39:09;;;;;;;2.20;2.00;;;23.00;99.90;;;;;;6195629;23;20221;-83
2023/08/06 18:19:02;;;;;;;2.60;2.20;;;20.60;99.90;;;;;;6265428;22;20460;-85
2023/08/06 18:21:29;;;;;;;2.40;2.13;;;20.50;99.90;;;;;;6284675;22;20218;-82
2023/08/06 18:23:56;;;;;;;3.90;1.60;;;20.40;99.90;;;;;;6282396;22;20557;-83
2023/08/06 18:26:24;;;;;;;2.07;1.87;;;20.40;99.90;;;;;;6253955;22;20176;-82
2023/08/06 18:28:51;;;;;;;2.17;1.40;;;20.10;99.90;;;;;;6254670;22;20240;-82
2023/08/06 18:31:19;;;;;;;2.40;1.67;;;20.00;99.90;;;;;;6254301;22;20537;-84
2023/08/06 18:33:46;;;;;;;1.60;1.40;;;19.80;99.90;;;;;;6281712;22;20181;-83
2023/08/06 18:36:19;;;;;;;1.50;1.40;;;19.80;99.90;;;;;;6254897;22;20178;-82
2023/08/06 18:38:49;;;;;;;1.57;1.40;;;19.70;99.90;;;;;;6281460;22;20186;-83
2023/08/06 18:41:16;;;;;;;2.00;1.80;;;19.70;99.90;;;;;;6254795;22;20138;-84
2023/08/06 18:43:44;;;;;;;2.43;1.70;;;19.50;99.90;;;;;;6254026;22;20185;-84
2023/08/06 18:46:11;;;;;;;7.37;5.80;;;19.50;99.90;;;;;;6251890;22;20219;-83
2023/08/06 18:48:38;;;;;;;2.10;1.90;;;19.30;99.90;;;;;;6253577;22;20451;-83
2023/08/06 18:51:06;;;;;;;2.50;2.27;;;19.00;99.90;;;;;;6280382;22;20189;-84
2023/08/06 18:53:33;;;;;;;2.63;2.00;;;19.00;99.90;;;;;;6253307;22;20240;-85
2023/08/06 18:56:00;;;;;;;2.10;1.90;;;18.90;99.90;;;;;;6253406;22;20182;-84
2023/08/06 20:18:14;;;;;;;0.83;0.70;;;17.80;99.90;;;;;;6203213;22;20460;-89
2023/08/06 21:08:05;;;;;;;0.97;0.80;;;17.60;99.90;;;;;;6219832;23;20194;-83
2023/08/06 21:10:48;;;;;;;1.50;1.10;;;17.60;99.90;;;;;;6217540;23;20175;-84
2023/08/06 21:14:06;;;;;;;0.73;0.70;;;17.50;99.90;;;;;;6197541;23;20191;-84
2023/08/06 21:16:41;;;;;;;0.73;0.60;;;17.50;99.90;;;;;;6218807;23;20173;-82
2023/08/06 21:19:09;;;;;;;1.67;0.50;;;17.40;99.90;;;;;;6218661;23;20252;-84
2023/08/06 21:21:36;;;;;;;0.93;0.50;;;17.40;99.90;;;;;;6103238;23;20180;-83
2023/08/06 21:24:05;;;;;;;1.03;0.60;;;17.40;99.90;;;;;;6103550;23;20189;-82
2023/08/06 21:26:32;;;;;;;2.80;0.80;;;17.40;99.90;;;;;;6079940;23;20165;-84
2023/08/06 21:28:59;;;;;;;0.73;0.60;;;17.40;99.90;;;;;;6079705;23;20271;-80
2023/08/06 21:31:27;;;;;;;0.60;0.50;;;17.50;99.90;;;;;;6127492;23;20173;-82
2023/08/06 21:33:54;;;;;;;4.00;1.00;;;17.60;99.90;;;;;;6127829;23;20231;-82
2023/08/06 21:36:23;;;;;;;0.57;0.57;;;17.60;99.90;;;;;;6127923;23;20169;-82
2023/08/06 21:38:50;;;;;;;1.30;0.70;;;17.50;99.90;;;;;;6114582;23;20192;-81
2023/08/06 21:41:18;;;;;;;0.57;0.57;;;17.50;99.90;;;;;;6193591;23;20163;-81
2023/08/06 21:43:46;;;;;;;0.60;0.43;;;17.40;99.90;;;;;;6193516;23;20373;-84
2023/08/06 21:46:15;;;;;;;0.50;0.50;;;17.30;99.90;;;;;;6194231;23;20557;-82
2023/08/06 21:48:46;;;;;;;0.60;0.60;;;17.20;99.90;;;;;;6219128;23;20187;-80
2023/08/06 21:51:17;;;;;;;1.30;0.63;;;17.30;99.90;;;;;;6218832;23;20573;-79
2023/08/06 21:53:45;;;;;;;0.67;0.60;;;17.10;99.90;;;;;;6218268;23;20246;-80
2023/08/06 21:56:14;;;;;;;0.53;0.53;;;17.10;99.90;;;;;;6194314;23;20167;-81
2023/08/06 21:58:47;;;;;;;0.80;0.80;;;17.10;99.90;;;;;;6193634;23;20202;-81
2023/08/06 22:01:15;;;;;;;0.50;0.50;;;17.10;99.90;;;;;;6220694;23;20206;-80
2023/08/06 22:03:43;;;;;;;0.80;0.80;;;17.00;99.90;;;;;;6218934;23;20191;-82
2023/08/06 22:06:13;;;;;;;0.93;0.70;;;17.00;99.90;;;;;;6219177;22;20179;-82
2023/08/06 22:08:40;;;;;;;0.83;0.60;;;17.00;99.90;;;;;;6218590;23;20191;-83
2023/08/06 22:11:08;;;;;;;1.93;0.50;;;16.90;99.90;;;;;;6219366;23;20192;-81
2023/08/06 22:13:39;;;;;;;1.17;0.67;;;16.90;99.90;;;;;;6218608;23;20473;-80
2023/08/06 22:16:07;;;;;;;0.60;0.60;;;16.90;99.90;;;;;;6219255;23;20163;-83
2023/08/06 22:18:35;;;;;;;0.80;0.50;;;16.90;99.90;;;;;;6218009;23;20201;-81
2023/08/06 22:21:02;;;;;;;0.50;0.50;;;16.90;99.90;;;;;;6193168;23;20254;-81
2023/08/06 22:23:29;;;;;;;0.50;0.50;;;16.80;99.90;;;;;;6219480;23;20261;-81
2023/08/06 22:25:57;;;;;;;0.50;0.50;;;16.70;99.90;;;;;;6193465;23;20533;-80
2023/08/06 22:28:24;;;;;;;0.63;0.50;;;16.60;99.90;;;;;;6218020;23;20198;-80
2023/08/06 22:30:52;;;;;;;1.30;0.60;;;16.50;99.90;;;;;;6218425;23;20549;-80
2023/08/06 22:33:21;;;;;;;1.33;0.50;;;16.30;99.90;;;;;;6218294;23;20281;-81
2023/08/06 22:35:50;;;;;;;2.23;0.97;;;16.20;99.90;;;;;;6218182;23;20210;-82
2023/08/06 22:38:18;;;;;;;1.27;0.70;;;16.20;99.90;;;;;;6218480;23;20237;-81
2023/08/06 22:40:45;;;;;;;1.97;0.60;;;16.20;99.90;;;;;;6218568;23;20185;-81
2023/08/06 22:43:13;;;;;;;0.80;0.60;;;16.00;99.90;;;;;;6217787;23;20562;-81
2023/08/06 22:45:40;;;;;;;0.83;0.60;;;15.90;99.90;;;;;;6219711;23;20165;-81
2023/08/06 22:48:13;;;;;;;0.63;0.63;;;15.80;99.90;;;;;;6193632;23;20190;-81
2023/08/06 22:50:45;;;;;;;1.33;0.50;;;15.70;99.90;;;;;;6218766;23;20146;-81
2023/08/06 22:53:16;;;;;;;0.53;0.50;;;15.70;99.90;;;;;;6217265;23;20286;-81
